TimeEST,TemperatureF,Dew PointF,Humidity,Sea Level PressureIn,VisibilityMPH,Wind Direction,Wind SpeedMPH,Gust SpeedMPH,PrecipitationIn,Events,Conditions,WindDirDegrees,DateUTC
12:15 AM,55.4,46.4,72,30.25,10.0,ESE,3.5,-,N/A,,Clear,120,2013-02-19 05:15:00
12:35 AM,55.4,46.4,72,30.25,10.0,SE,4.6,-,N/A,,Clear,130,2013-02-19 05:35:00
12:55 AM,55.4,46.4,72,30.25,10.0,Calm,Calm,-,N/A,,Clear,0,2013-02-19 05:55:00
1:15 AM,51.8,46.4,82,30.25,10.0,Calm,Calm,-,N/A,,Clear,0,2013-02-19 06:15:00
1:35 AM,53.6,46.4,77,30.25,10.0,Calm,Calm,-,N/A,,Clear,0,2013-02-19 06:35:00
1:55 AM,50.0,46.4,87,30.24,10.0,East,3.5,-,N/A,,Clear,80,2013-02-19 06:55:00
2:15 AM,50.0,50.0,100,30.24,10.0,East,3.5,-,N/A,,Clear,90,2013-02-19 07:15:00
2:35 AM,50.0,48.2,94,30.23,10.0,Calm,Calm,-,N/A,,Scattered Clouds,0,2013-02-19 07:35:00
2:55 AM,48.2,46.4,93,30.22,10.0,Calm,Calm,-,N/A,,Clear,0,2013-02-19 07:55:00
3:15 AM,48.2,48.2,100,30.22,10.0,Calm,Calm,-,N/A,,Clear,0,2013-02-19 08:15:00
3:35 AM,48.2,-9999,N/A,30.21,10.0,Calm,Calm,-,N/A,,Clear,0,2013-02-19 08:35:00
3:55 AM,48.2,-9999,N/A,30.21,10.0,Calm,Calm,-,N/A,,Scattered Clouds,0,2013-02-19 08:55:00
4:15 AM,48.2,-9999,N/A,30.20,10.0,SE,3.5,-,N/A,,Mostly Cloudy,130,2013-02-19 09:15:00
4:35 AM,50.0,-9999,N/A,30.20,10.0,SE,3.5,-,N/A,,Scattered Clouds,130,2013-02-19 09:35:00
4:55 AM,51.8,-9999,N/A,30.20,10.0,Calm,Calm,-,N/A,,Clear,0,2013-02-19 09:55:00
5:15 AM,50.0,-9999,N/A,30.21,10.0,Calm,Calm,-,N/A,,Clear,0,2013-02-19 10:15:00
5:35 AM,48.2,-9999,N/A,30.20,10.0,SE,3.5,-,N/A,,Clear,130,2013-02-19 10:35:00
5:55 AM,50.0,-9999,N/A,30.19,10.0,SE,3.5,-,N/A,,Scattered Clouds,130,2013-02-19 10:55:00
6:15 AM,51.8,-9999,N/A,30.19,10.0,SE,3.5,-,N/A,,Scattered Clouds,130,2013-02-19 11:15:00
6:55 AM,51.8,51.8,100,30.19,10.0,SE,3.5,-,N/A,,Clear,130,2013-02-19 11:55:00
7:15 AM,51.8,48.2,88,30.20,10.0,Calm,Calm,-,N/A,,Clear,0,2013-02-19 12:15:00
7:35 AM,51.8,48.2,88,30.20,10.0,SE,3.5,-,N/A,,Clear,140,2013-02-19 12:35:00
7:55 AM,53.6,50.0,88,30.20,10.0,SE,3.5,-,N/A,,Clear,130,2013-02-19 12:55:00
8:15 AM,59.0,51.8,77,30.20,10.0,SE,3.5,-,N/A,,Clear,130,2013-02-19 13:15:00
8:35 AM,60.8,51.8,72,30.21,10.0,SE,4.6,-,N/A,,Scattered Clouds,140,2013-02-19 13:35:00
8:55 AM,62.6,53.6,72,30.22,10.0,SE,4.6,-,N/A,,Scattered Clouds,140,2013-02-19 13:55:00
9:15 AM,66.2,53.6,64,30.21,10.0,SSE,5.8,-,N/A,,Clear,150,2013-02-19 14:15:00
9:35 AM,68.0,55.4,64,30.22,10.0,South,5.8,-,N/A,,Clear,170,2013-02-19 14:35:00
9:55 AM,69.8,55.4,60,30.22,10.0,South,8.1,-,N/A,,Clear,190,2013-02-19 14:55:00
10:15 AM,71.6,53.6,53,30.22,10.0,South,10.4,-,N/A,,Clear,180,2013-02-19 15:15:00
10:35 AM,73.4,51.8,47,30.22,10.0,South,12.7,-,N/A,,Clear,190,2013-02-19 15:35:00
10:55 AM,75.2,51.8,44,30.22,10.0,South,12.7,18.4,N/A,,Clear,180,2013-02-19 15:55:00
11:15 AM,75.2,51.8,44,30.22,10.0,South,13.8,17.3,N/A,,Clear,190,2013-02-19 16:15:00
11:35 AM,77.0,50.0,39,30.21,10.0,South,8.1,18.4,N/A,,Clear,190,2013-02-19 16:35:00
11:55 AM,77.0,50.0,39,30.21,10.0,SW,9.2,18.4,N/A,,Scattered Clouds,220,2013-02-19 16:55:00
12:15 PM,77.0,50.0,39,30.20,10.0,SW,10.4,-,N/A,,Scattered Clouds,220,2013-02-19 17:15:00
12:35 PM,78.8,50.0,36,30.19,10.0,SW,10.4,17.3,N/A,,Scattered Clouds,230,2013-02-19 17:35:00
12:55 PM,78.8,50.0,36,30.17,10.0,WSW,9.2,-,N/A,,Scattered Clouds,240,2013-02-19 17:55:00
1:15 PM,78.8,48.2,34,30.16,10.0,SW,9.2,-,N/A,,Scattered Clouds,220,2013-02-19 18:15:00
1:35 PM,78.8,48.2,34,30.15,10.0,SW,6.9,17.3,N/A,,Scattered Clouds,230,2013-02-19 18:35:00
1:55 PM,80.6,48.2,32,30.15,10.0,WSW,9.2,21.9,N/A,,Mostly Cloudy,250,2013-02-19 18:55:00
2:15 PM,80.6,48.2,32,30.14,10.0,WSW,15.0,-,N/A,,Scattered Clouds,240,2013-02-19 19:15:00
2:35 PM,80.6,46.4,30,30.14,10.0,West,16.1,21.9,N/A,,Scattered Clouds,260,2013-02-19 19:35:00
2:55 PM,78.8,46.4,32,30.14,10.0,West,18.4,24.2,N/A,,Clear,260,2013-02-19 19:55:00
3:15 PM,78.8,48.2,34,30.13,10.0,West,16.1,23.0,N/A,,Clear,260,2013-02-19 20:15:00
3:35 PM,78.8,48.2,34,30.13,10.0,WSW,15.0,20.7,N/A,,Clear,240,2013-02-19 20:35:00
4:15 PM,78.8,48.2,34,30.12,10.0,SW,11.5,20.7,N/A,,Clear,230,2013-02-19 21:15:00
4:35 PM,77.0,46.4,34,30.12,10.0,West,15.0,-,N/A,,Clear,260,2013-02-19 21:35:00
4:55 PM,77.0,48.2,36,30.12,10.0,WSW,11.5,19.6,N/A,,Clear,250,2013-02-19 21:55:00
5:15 PM,75.2,50.0,41,30.12,10.0,West,11.5,-,N/A,,Clear,260,2013-02-19 22:15:00
5:35 PM,75.2,50.0,41,30.12,10.0,WSW,11.5,-,N/A,,Clear,250,2013-02-19 22:35:00
5:55 PM,73.4,51.8,47,30.13,10.0,WSW,9.2,-,N/A,,Clear,250,2013-02-19 22:55:00
6:15 PM,71.6,51.8,50,30.13,10.0,WSW,6.9,-,N/A,,Clear,250,2013-02-19 23:15:00
7:35 PM,68.0,55.4,64,30.13,10.0,WSW,3.5,-,N/A,,Clear,240,2013-02-20 00:35:00
7:55 PM,68.0,55.4,64,30.14,10.0,Calm,Calm,-,N/A,,Clear,0,2013-02-20 00:55:00
8:35 PM,62.6,55.4,77,30.15,10.0,Calm,Calm,-,N/A,,Clear,0,2013-02-20 01:35:00
8:55 PM,60.8,55.4,82,30.14,10.0,Calm,Calm,-,N/A,,Clear,0,2013-02-20 01:55:00
9:15 PM,60.8,55.4,82,30.15,10.0,Calm,Calm,-,N/A,,Clear,0,2013-02-20 02:15:00
9:35 PM,62.6,57.2,82,30.14,10.0,SSW,3.5,-,N/A,,Clear,210,2013-02-20 02:35:00
9:55 PM,64.4,57.2,77,30.14,10.0,Calm,Calm,-,N/A,,Clear,0,2013-02-20 02:55:00
10:15 PM,60.8,57.2,88,30.14,10.0,Calm,Calm,-,N/A,,Clear,0,2013-02-20 03:15:00
10:35 PM,60.8,57.2,88,30.14,10.0,SSW,3.5,-,N/A,,Clear,210,2013-02-20 03:35:00
10:55 PM,64.4,59.0,83,30.14,10.0,SSW,3.5,-,N/A,,Clear,200,2013-02-20 03:55:00
11:15 PM,62.6,59.0,88,30.13,10.0,SSW,3.5,-,N/A,,Clear,200,2013-02-20 04:15:00
11:35 PM,62.6,59.0,88,30.12,10.0,Calm,Calm,-,N/A,,Clear,0,2013-02-20 04:35:00
11:55 PM,62.6,60.8,94,30.12,10.0,Calm,Calm,-,N/A,,Clear,0,2013-02-20 04:55:00